Time;durP1;ratioP1;P1;durP2;ratioP2;P2;SDS_P1;SDS_P2;PMS_P1;PMS_P2;Temp;Humidity;BMP_temperature;BMP_pressure;BME280_temperature;BME280_humidity;BME280_pressure;Samples;Min_cycle;Max_cycle;Signal;HPM_P1;HPM_P2
2021/10/09 00:02:15;;;;;;;36.45;30.92;;;11.80;99.90;;;;;;5046121;28;25148;-70
2021/10/09 00:04:41;;;;;;;40.60;31.27;;;11.70;99.90;;;;;;5047325;28;25078;-70
2021/10/09 00:07:07;;;;;;;38.75;28.50;;;11.70;99.90;;;;;;5036952;28;25058;-70
2021/10/09 00:09:32;;;;;;;32.92;27.67;;;11.70;99.90;;;;;;5049852;28;25174;-71
2021/10/09 00:11:58;;;;;;;39.72;29.75;;;11.70;99.90;;;;;;5052516;28;25065;-70
2021/10/09 00:14:24;;;;;;;36.38;30.73;;;11.70;99.90;;;;;;5051197;28;25065;-71
2021/10/09 00:16:50;;;;;;;38.00;31.13;;;11.70;99.90;;;;;;5058018;28;25091;-68
2021/10/09 00:19:16;;;;;;;37.97;28.83;;;11.70;99.90;;;;;;5057322;28;25105;-70
2021/10/09 00:21:45;;;;;;;39.97;31.83;;;11.70;99.90;;;;;;5047286;28;25109;-73
2021/10/09 00:24:17;;;;;;;40.50;33.15;;;11.70;99.90;;;;;;5029307;28;25107;-70
2021/10/09 00:26:43;;;;;;;39.88;31.80;;;11.70;99.90;;;;;;5047191;28;25083;-71
2021/10/09 00:29:10;;;;;;;45.83;33.33;;;11.60;99.90;;;;;;5025507;28;25071;-69
2021/10/09 00:31:35;;;;;;;39.55;32.90;;;11.60;99.90;;;;;;5046276;28;25102;-71
2021/10/09 00:34:01;;;;;;;42.25;33.55;;;11.60;99.90;;;;;;5027339;28;25103;-69
2021/10/09 00:36:27;;;;;;;39.67;31.42;;;11.70;99.90;;;;;;5042296;28;25079;-70
2021/10/09 00:38:54;;;;;;;44.70;34.20;;;11.70;99.90;;;;;;5044119;28;25064;-68
2021/10/09 00:41:20;;;;;;;42.15;33.17;;;11.70;99.90;;;;;;5035110;28;25057;-70
2021/10/09 00:43:45;;;;;;;45.25;35.40;;;11.80;99.90;;;;;;5042888;28;25140;-69
2021/10/09 00:46:12;;;;;;;43.17;33.92;;;11.70;99.90;;;;;;5045238;28;25093;-70
2021/10/09 00:48:38;;;;;;;45.15;33.97;;;11.60;99.90;;;;;;5027781;28;25129;-69
2021/10/09 00:51:05;;;;;;;43.10;33.92;;;11.70;99.90;;;;;;5028119;28;25134;-68
2021/10/09 00:53:32;;;;;;;44.00;34.38;;;11.70;99.90;;;;;;5046777;28;25158;-70
2021/10/09 00:56:00;;;;;;;43.47;34.97;;;11.80;99.90;;;;;;5042031;28;25050;-68
2021/10/09 00:58:28;;;;;;;45.63;34.88;;;11.90;99.90;;;;;;5044369;28;25066;-70
2021/10/09 01:00:55;;;;;;;48.45;38.08;;;11.90;99.90;;;;;;5044124;28;25064;-69
2021/10/09 01:03:22;;;;;;;48.75;37.58;;;11.70;99.90;;;;;;5048657;28;25162;-69
2021/10/09 01:05:48;;;;;;;49.47;38.05;;;11.50;99.90;;;;;;5032619;28;25099;-71
2021/10/09 01:08:14;;;;;;;48.85;34.10;;;11.40;99.90;;;;;;5049946;28;25093;-71
2021/10/09 01:10:41;;;;;;;44.92;37.22;;;11.40;99.90;;;;;;5043689;28;25055;-71
2021/10/09 01:13:06;;;;;;;42.85;36.05;;;11.30;99.90;;;;;;5045963;28;25116;-70
2021/10/09 01:15:34;;;;;;;44.33;36.05;;;11.20;99.90;;;;;;5045569;28;25293;-71
2021/10/09 01:18:15;;;;;;;52.63;39.13;;;11.20;99.90;;;;;;5044535;28;25125;-68
2021/10/09 01:20:44;;;;;;;47.80;38.72;;;11.20;99.90;;;;;;5043070;28;25098;-70
2021/10/09 01:23:10;;;;;;;47.75;37.40;;;11.10;99.90;;;;;;5043610;28;25060;-71
2021/10/09 01:25:35;;;;;;;48.78;38.65;;;11.10;99.90;;;;;;5038889;28;25142;-72
2021/10/09 01:28:02;;;;;;;53.15;39.30;;;11.00;99.90;;;;;;5033818;28;25116;-71
2021/10/09 01:30:27;;;;;;;47.05;36.95;;;10.90;99.90;;;;;;5038085;28;25128;-71
2021/10/09 01:32:53;;;;;;;44.47;35.03;;;11.00;99.90;;;;;;5043475;28;25083;-70
2021/10/09 01:35:19;;;;;;;48.33;37.63;;;11.10;99.90;;;;;;5024298;28;25094;-69
2021/10/09 01:37:44;;;;;;;46.45;36.45;;;11.10;99.90;;;;;;5045507;28;25057;-69
2021/10/09 01:40:11;;;;;;;47.50;36.78;;;11.10;99.90;;;;;;5008715;28;25093;-70
2021/10/09 01:42:37;;;;;;;51.97;39.13;;;11.10;99.90;;;;;;5038722;28;25075;-71
2021/10/09 01:45:07;;;;;;;56.03;41.53;;;11.00;99.90;;;;;;5035342;28;25080;-71
2021/10/09 01:47:43;;;;;;;55.85;41.45;;;10.80;99.90;;;;;;5017126;28;25109;-69
2021/10/09 01:50:10;;;;;;;57.88;43.38;;;10.70;99.90;;;;;;5040401;28;25064;-70
2021/10/09 01:52:36;;;;;;;54.80;42.75;;;10.70;99.90;;;;;;5030674;28;25148;-71
2021/10/09 01:55:01;;;;;;;50.80;37.97;;;10.70;99.90;;;;;;5024645;28;25084;-71
2021/10/09 01:57:27;;;;;;;51.92;39.38;;;10.90;99.90;;;;;;5020728;28;25156;-70
2021/10/09 01:59:53;;;;;;;47.65;37.75;;;10.90;99.90;;;;;;5032210;28;25076;-71
2021/10/09 02:02:18;;;;;;;56.97;43.40;;;10.90;99.90;;;;;;5043864;28;25144;-71
2021/10/09 02:04:44;;;;;;;58.53;45.20;;;10.90;99.90;;;;;;5037106;28;25136;-70
2021/10/09 02:07:15;;;;;;;54.10;42.65;;;10.80;99.90;;;;;;5042145;28;25074;-70
2021/10/09 02:09:40;;;;;;;55.85;42.45;;;10.80;99.90;;;;;;5047683;28;25077;-70
2021/10/09 02:12:06;;;;;;;60.55;42.33;;;10.90;99.90;;;;;;5048591;28;25099;-70
2021/10/09 02:14:46;;;;;;;53.80;41.35;;;10.90;99.90;;;;;;5057332;28;25036;-70
2021/10/09 02:27:54;;;;;;;54.33;40.20;;;10.70;99.90;;;;;;5041949;28;25082;-71
2021/10/09 02:30:20;;;;;;;64.65;45.72;;;10.80;99.90;;;;;;5053268;28;25089;-69
2021/10/09 02:32:45;;;;;;;63.97;45.97;;;10.70;99.90;;;;;;5021726;28;25231;-69
2021/10/09 02:35:11;;;;;;;71.47;49.10;;;10.70;99.90;;;;;;5011373;28;25077;-71
2021/10/09 02:37:37;;;;;;;63.78;47.90;;;10.60;99.90;;;;;;5040470;28;25132;-70
2021/10/09 02:40:03;;;;;;;58.42;45.00;;;10.60;99.90;;;;;;5035836;28;25046;-70
2021/10/09 02:42:28;;;;;;;63.83;45.20;;;10.60;99.90;;;;;;5031959;28;25078;-69
2021/10/09 02:44:54;;;;;;;63.35;45.13;;;10.70;99.90;;;;;;5042983;28;25071;-71
2021/10/09 02:47:19;;;;;;;67.35;48.47;;;10.70;99.90;;;;;;5043407;28;25133;-69
2021/10/09 02:49:45;;;;;;;62.85;45.90;;;10.80;99.90;;;;;;5048488;28;25105;-69
2021/10/09 02:52:10;;;;;;;62.17;44.47;;;10.70;99.90;;;;;;5036425;28;25062;-70
2021/10/09 02:54:36;;;;;;;58.75;41.97;;;10.80;99.90;;;;;;5044997;28;25081;-69
2021/10/09 02:57:02;;;;;;;65.47;45.67;;;10.80;99.90;;;;;;5036437;28;25092;-71
2021/10/09 02:59:38;;;;;;;60.55;45.75;;;10.80;99.90;;;;;;5038547;28;25106;-70
2021/10/09 03:02:04;;;;;;;58.88;42.58;;;10.90;99.90;;;;;;5047916;28;25056;-70
2021/10/09 03:04:30;;;;;;;61.97;44.42;;;10.90;99.90;;;;;;5041497;28;25108;-71
2021/10/09 03:06:55;;;;;;;57.40;42.10;;;10.90;99.90;;;;;;5032094;28;25061;-72
2021/10/09 03:09:21;;;;;;;61.88;45.45;;;10.80;99.90;;;;;;5034423;28;25071;-71
2021/10/09 03:11:46;;;;;;;63.30;43.92;;;10.70;99.90;;;;;;5040613;28;25107;-70
2021/10/09 03:14:12;;;;;;;62.33;45.15;;;10.80;99.90;;;;;;5041283;28;25066;-69
2021/10/09 03:16:38;;;;;;;56.03;43.08;;;10.90;99.90;;;;;;5042398;28;25072;-71
2021/10/09 03:19:03;;;;;;;66.65;46.88;;;10.90;99.90;;;;;;5041079;28;25152;-70
2021/10/09 03:21:29;;;;;;;50.97;39.10;;;10.90;99.90;;;;;;5041565;28;25055;-70
2021/10/09 03:23:54;;;;;;;55.85;41.45;;;10.90;99.90;;;;;;5035779;28;25056;-70
2021/10/09 03:26:20;;;;;;;65.95;45.40;;;10.90;99.90;;;;;;5039007;28;25126;-70
2021/10/09 03:28:46;;;;;;;56.00;40.60;;;11.00;99.90;;;;;;5040833;28;25142;-71
2021/10/09 03:31:11;;;;;;;63.67;45.80;;;10.90;99.90;;;;;;5047567;28;25071;-68
2021/10/09 03:33:37;;;;;;;66.80;45.88;;;10.90;99.90;;;;;;5044953;28;25144;-71
2021/10/09 03:36:03;;;;;;;67.45;46.55;;;10.90;99.90;;;;;;5041043;28;25086;-70
2021/10/09 03:38:29;;;;;;;64.65;46.05;;;10.90;99.90;;;;;;5037693;28;25075;-70
2021/10/09 03:41:01;;;;;;;69.00;45.50;;;10.80;99.90;;;;;;5050409;28;25088;-66
2021/10/09 03:43:27;;;;;;;67.43;48.00;;;10.80;99.90;;;;;;5042493;28;25145;-66
2021/10/09 03:53:59;;;;;;;77.40;51.90;;;10.30;99.90;;;;;;5041500;28;25054;-69
2021/10/09 03:56:25;;;;;;;69.47;47.13;;;10.40;99.90;;;;;;5049004;28;25126;-70
2021/10/09 03:58:50;;;;;;;61.95;44.33;;;10.40;99.90;;;;;;5063049;28;25053;-71
2021/10/09 04:01:16;;;;;;;65.95;44.58;;;10.50;99.90;;;;;;5049726;28;25062;-70
2021/10/09 04:03:57;;;;;;;67.97;46.45;;;10.50;99.90;;;;;;5050540;28;25061;-66
2021/10/09 04:06:23;;;;;;;63.13;45.35;;;10.50;99.90;;;;;;5022139;28;25071;-71
2021/10/09 04:08:48;;;;;;;66.05;46.50;;;10.40;99.90;;;;;;5045322;28;25151;-69
2021/10/09 04:11:14;;;;;;;77.32;51.90;;;10.40;99.90;;;;;;5045418;28;25125;-71
2021/10/09 04:13:47;;;;;;;89.90;57.33;;;10.30;99.90;;;;;;5047191;28;25080;-65
2021/10/09 04:16:13;;;;;;;81.95;54.63;;;10.10;99.90;;;;;;5038771;28;25051;-67
2021/10/09 04:18:39;;;;;;;88.85;54.92;;;10.00;99.90;;;;;;5044580;28;25077;-69
2021/10/09 04:21:04;;;;;;;60.85;44.85;;;9.90;99.90;;;;;;5036219;28;25175;-70
2021/10/09 04:23:31;;;;;;;64.15;46.22;;;9.90;99.90;;;;;;5058424;28;25082;-67
2021/10/09 04:25:56;;;;;;;71.38;47.65;;;10.10;99.90;;;;;;5029173;28;25110;-70
2021/10/09 04:28:22;;;;;;;63.50;45.40;;;10.20;99.90;;;;;;5028003;28;25056;-69
2021/10/09 04:30:48;;;;;;;56.50;40.78;;;10.30;99.90;;;;;;5030668;28;25067;-70
2021/10/09 04:33:13;;;;;;;71.82;48.75;;;10.40;99.90;;;;;;5034908;28;25042;-70
2021/10/09 04:35:39;;;;;;;67.85;47.25;;;10.40;99.90;;;;;;5039135;28;25125;-69
2021/10/09 04:38:08;;;;;;;68.15;46.75;;;10.30;99.90;;;;;;5025465;28;25117;-70
2021/10/09 04:40:34;;;;;;;69.57;50.47;;;10.20;99.90;;;;;;5039524;28;25079;-69
2021/10/09 04:42:59;;;;;;;68.18;47.08;;;10.20;99.90;;;;;;5031726;28;25073;-70
2021/10/09 04:45:25;;;;;;;76.35;50.83;;;10.20;99.90;;;;;;5035098;28;25127;-73
2021/10/09 04:47:51;;;;;;;71.30;48.67;;;10.30;99.90;;;;;;5043194;28;25073;-70
2021/10/09 04:50:16;;;;;;;74.80;52.13;;;10.30;99.90;;;;;;5026447;28;25062;-69
2021/10/09 04:52:42;;;;;;;71.07;47.58;;;10.40;99.90;;;;;;5044819;28;25105;-70
2021/10/09 04:55:08;;;;;;;80.55;48.55;;;10.40;99.90;;;;;;5045882;28;25061;-69
2021/10/09 04:57:35;;;;;;;64.47;46.38;;;10.40;99.90;;;;;;5029568;28;25092;-69
2021/10/09 05:00:01;;;;;;;67.07;43.92;;;10.50;99.90;;;;;;5048440;28;25102;-70
2021/10/09 05:02:26;;;;;;;71.40;47.80;;;10.50;99.90;;;;;;5048377;28;25172;-69
2021/10/09 05:04:52;;;;;;;68.78;47.00;;;10.50;99.90;;;;;;5046364;28;25128;-70
2021/10/09 05:07:17;;;;;;;69.30;48.65;;;10.40;99.90;;;;;;5043811;28;25077;-69
2021/10/09 05:09:43;;;;;;;87.30;57.72;;;10.40;99.90;;;;;;5044613;28;25137;-70
2021/10/09 05:12:09;;;;;;;80.32;51.17;;;10.40;99.90;;;;;;5041445;28;25074;-70
2021/10/09 05:14:35;;;;;;;81.22;54.13;;;10.30;99.90;;;;;;5042017;28;25090;-70
2021/10/09 05:17:01;;;;;;;75.70;50.92;;;10.40;99.90;;;;;;5042755;28;25129;-70
2021/10/09 05:19:26;;;;;;;72.15;51.22;;;10.40;99.90;;;;;;5045613;28;25056;-71
2021/10/09 05:21:52;;;;;;;69.28;47.83;;;10.50;99.90;;;;;;5042752;28;25057;-71
2021/10/09 05:24:18;;;;;;;73.50;49.70;;;10.60;99.90;;;;;;5043892;28;25073;-70
2021/10/09 05:26:43;;;;;;;72.43;50.33;;;10.70;99.90;;;;;;5042979;28;25072;-70
2021/10/09 05:29:24;;;;;;;64.35;45.83;;;10.70;99.90;;;;;;5043079;28;25133;-68
2021/10/09 05:31:52;;;;;;;83.85;53.83;;;10.70;99.90;;;;;;5048571;28;25117;-68
2021/10/09 05:34:18;;;;;;;85.50;55.92;;;10.50;99.90;;;;;;5024114;28;25083;-70
2021/10/09 05:36:44;;;;;;;76.82;51.45;;;10.30;99.90;;;;;;5043758;28;25088;-71
2021/10/09 05:39:09;;;;;;;97.32;58.45;;;10.30;99.90;;;;;;5027645;28;25061;-71
2021/10/09 05:41:35;;;;;;;97.28;58.08;;;10.20;99.90;;;;;;5045935;28;25123;-72
2021/10/09 05:44:01;;;;;;;99.60;57.75;;;9.90;99.90;;;;;;5044219;28;25160;-68
2021/10/09 05:46:26;;;;;;;88.10;54.28;;;9.80;99.90;;;;;;5045159;28;25096;-71
2021/10/09 05:48:54;;;;;;;133.75;58.88;;;9.70;99.90;;;;;;5041156;28;25068;-70
2021/10/09 05:54:17;;;;;;;105.95;56.83;;;9.70;99.90;;;;;;5038083;28;25084;-69
2021/10/09 06:31:16;;;;;;;72.18;48.33;;;10.10;99.90;;;;;;5044160;28;25070;-70
2021/10/09 06:42:45;;;;;;;67.43;45.42;;;10.10;99.90;;;;;;5046792;28;25079;-69
2021/10/09 06:45:21;;;;;;;75.45;49.65;;;10.10;99.90;;;;;;5025774;28;25142;-70
2021/10/09 07:01:34;;;;;;;80.22;50.78;;;10.00;99.90;;;;;;5046706;28;25157;-69
2021/10/09 07:03:59;;;;;;;75.10;50.00;;;10.00;99.90;;;;;;5029397;28;25049;-68
2021/10/09 07:06:25;;;;;;;70.85;47.70;;;10.10;99.90;;;;;;5046641;28;25086;-69
2021/10/09 07:08:50;;;;;;;77.90;49.45;;;10.20;99.90;;;;;;5043600;28;25153;-70
2021/10/09 07:11:16;;;;;;;79.47;52.13;;;10.30;99.90;;;;;;5052215;28;25065;-69
2021/10/09 07:13:42;;;;;;;85.13;53.00;;;10.20;99.90;;;;;;5058699;28;25079;-70
2021/10/09 07:16:09;;;;;;;91.35;55.13;;;10.20;99.90;;;;;;5029107;28;25076;-72
2021/10/09 07:18:34;;;;;;;73.63;49.90;;;10.20;99.90;;;;;;5055061;28;25070;-69
2021/10/09 07:21:00;;;;;;;82.57;53.35;;;10.20;99.90;;;;;;5048680;28;25062;-70
2021/10/09 07:23:27;;;;;;;83.10;54.85;;;10.30;99.90;;;;;;5041374;28;25143;-69
2021/10/09 07:25:52;;;;;;;74.00;50.20;;;10.30;99.90;;;;;;5048654;28;25108;-71
2021/10/09 07:28:18;;;;;;;78.47;50.90;;;10.30;99.90;;;;;;5046702;28;25095;-68
2021/10/09 07:30:44;;;;;;;83.90;54.72;;;10.40;99.90;;;;;;5045341;28;25140;-70
2021/10/09 07:33:12;;;;;;;82.63;52.75;;;10.50;99.90;;;;;;5046540;28;25118;-69
2021/10/09 07:35:38;;;;;;;88.90;54.00;;;10.50;99.90;;;;;;5048486;28;25060;-68
2021/10/09 07:38:04;;;;;;;79.28;52.25;;;10.50;99.90;;;;;;5047415;28;25124;-67
2021/10/09 07:40:29;;;;;;;75.85;53.40;;;10.50;99.90;;;;;;5042221;28;25093;-70
2021/10/09 07:42:55;;;;;;;78.10;52.55;;;10.60;99.90;;;;;;5039677;28;25055;-70
2021/10/09 07:45:21;;;;;;;73.75;52.08;;;10.70;99.90;;;;;;5038425;28;25069;-70
2021/10/09 07:47:46;;;;;;;77.68;54.30;;;10.90;99.90;;;;;;5043400;28;25054;-70
2021/10/09 07:50:14;;;;;;;84.50;53.42;;;11.00;99.90;;;;;;5031021;28;25063;-70
2021/10/09 07:52:41;;;;;;;70.72;48.72;;;11.00;99.90;;;;;;5047512;28;25047;-69
2021/10/09 07:55:08;;;;;;;79.13;53.83;;;11.10;99.90;;;;;;5052404;28;25070;-69
2021/10/09 07:57:34;;;;;;;73.53;51.65;;;11.20;99.90;;;;;;5047671;28;25099;-69
2021/10/09 08:00:00;;;;;;;80.85;52.92;;;11.20;99.90;;;;;;5043460;28;25058;-68
2021/10/09 08:02:25;;;;;;;80.28;52.53;;;11.30;99.90;;;;;;5044603;28;25068;-70
2021/10/09 08:04:51;;;;;;;85.47;53.47;;;11.30;99.90;;;;;;5045252;28;25122;-68
2021/10/09 08:07:17;;;;;;;69.63;49.47;;;11.50;99.90;;;;;;5047585;28;25056;-74
2021/10/09 08:09:42;;;;;;;73.63;50.72;;;11.60;99.90;;;;;;5030452;28;25458;-72
2021/10/09 08:12:08;;;;;;;65.47;47.50;;;11.90;99.90;;;;;;5055489;28;25087;-71
2021/10/09 08:14:34;;;;;;;74.63;48.80;;;12.10;99.90;;;;;;5053817;28;25093;-72
2021/10/09 08:16:59;;;;;;;72.45;48.13;;;12.20;99.90;;;;;;5056109;28;25109;-67
2021/10/09 08:19:25;;;;;;;63.63;45.50;;;12.30;99.90;;;;;;5055304;28;25049;-69
2021/10/09 08:21:51;;;;;;;61.28;44.83;;;12.60;99.90;;;;;;5034919;28;25107;-70
2021/10/09 08:24:32;;;;;;;61.08;43.90;;;12.80;99.90;;;;;;5025945;28;25089;-69
2021/10/09 08:27:34;;;;;;;62.42;44.10;;;13.10;99.90;;;;;;5044350;28;25066;-69
2021/10/09 08:35:30;;;;;;;58.00;43.53;;;13.50;99.90;;;;;;5044210;28;25080;-69
2021/10/09 08:40:40;;;;;;;60.63;44.05;;;13.40;99.90;;;;;;5044930;28;25068;-70
2021/10/09 08:43:06;;;;;;;59.55;42.10;;;13.90;99.90;;;;;;5039301;28;25075;-68
2021/10/09 08:45:31;;;;;;;56.70;40.05;;;13.80;99.90;;;;;;5042174;28;25070;-70
2021/10/09 08:47:57;;;;;;;57.78;41.50;;;13.70;99.90;;;;;;5039607;28;25095;-70
2021/10/09 08:50:23;;;;;;;55.60;40.45;;;13.70;99.90;;;;;;5027509;28;25118;-70
2021/10/09 08:53:03;;;;;;;53.85;40.63;;;13.80;99.90;;;;;;5044359;28;25098;-70
2021/10/09 08:55:30;;;;;;;53.85;39.90;;;14.00;99.90;;;;;;5042389;28;25140;-69
2021/10/09 08:58:03;;;;;;;52.63;38.28;;;13.90;99.90;;;;;;5039735;28;25055;-70
2021/10/09 09:00:42;;;;;;;54.22;40.28;;;13.80;99.90;;;;;;5044895;28;25145;-69
2021/10/09 09:03:12;;;;;;;56.58;39.20;;;14.00;99.90;;;;;;5039137;28;25072;-67
2021/10/09 09:05:54;;;;;;;53.70;37.65;;;14.30;99.90;;;;;;5044712;28;25066;-71
2021/10/09 09:26:12;;;;;;;59.78;37.83;;;14.10;99.90;;;;;;5044880;28;25043;-70
2021/10/09 09:31:08;;;;;;;48.63;37.65;;;14.10;99.90;;;;;;5052877;28;25060;-69
2021/10/09 09:33:42;;;;;;;47.78;37.47;;;14.20;99.90;;;;;;5029210;28;25049;-70
2021/10/09 09:38:55;;;;;;;52.88;40.53;;;14.10;99.90;;;;;;5044244;28;25109;-69
2021/10/09 09:41:23;;;;;;;51.03;38.35;;;14.20;99.90;;;;;;5045363;28;25168;-71
2021/10/09 09:43:53;;;;;;;50.60;39.42;;;14.40;99.90;;;;;;5018278;28;25080;-66
2021/10/09 09:46:24;;;;;;;54.72;40.05;;;14.70;99.90;;;;;;5039457;28;25061;-70
2021/10/09 09:48:51;;;;;;;52.17;38.00;;;14.70;99.90;;;;;;5030642;28;25116;-69
2021/10/09 09:51:19;;;;;;;47.95;39.33;;;14.90;99.90;;;;;;5056708;28;25079;-71
2021/10/09 09:53:47;;;;;;;52.45;38.85;;;15.20;99.90;;;;;;5054894;28;25066;-76
2021/10/09 09:56:15;;;;;;;53.85;39.78;;;14.90;99.90;;;;;;5058483;28;25065;-70
2021/10/09 09:58:43;;;;;;;55.13;40.78;;;14.60;99.90;;;;;;5058548;28;25183;-69
2021/10/09 10:01:11;;;;;;;51.65;38.92;;;14.10;99.90;;;;;;5052833;28;25127;-70
2021/10/09 10:03:42;;;;;;;54.15;38.58;;;14.10;99.90;;;;;;5051818;28;25071;-70
2021/10/09 10:06:08;;;;;;;54.88;39.00;;;14.20;99.90;;;;;;5049769;28;25059;-70
2021/10/09 10:08:34;;;;;;;52.88;38.10;;;14.00;99.90;;;;;;5055616;28;25114;-70
2021/10/09 10:11:02;;;;;;;47.95;37.75;;;14.10;99.90;;;;;;5051867;28;25113;-73
2021/10/09 10:13:31;;;;;;;54.75;38.53;;;14.00;99.90;;;;;;5053251;28;25074;-71
2021/10/09 10:15:57;;;;;;;51.35;38.35;;;14.20;99.90;;;;;;5049587;28;25068;-71
2021/10/09 10:18:49;;;;;;;51.80;39.10;;;14.30;99.90;;;;;;5044916;28;25063;-71
2021/10/09 10:21:19;;;;;;;50.58;37.70;;;14.30;99.90;;;;;;5046457;28;25111;-71
2021/10/09 10:23:46;;;;;;;47.78;37.28;;;14.40;99.90;;;;;;5035190;28;25064;-69
2021/10/09 10:26:21;;;;;;;53.35;36.50;;;14.50;99.90;;;;;;5043824;28;25074;-70
2021/10/09 10:29:07;;;;;;;51.47;36.60;;;14.60;99.90;;;;;;5038648;28;25135;-71
2021/10/09 10:31:34;;;;;;;56.35;35.92;;;14.60;99.90;;;;;;5061865;28;25087;-71
2021/10/09 10:34:25;;;;;;;50.60;35.40;;;14.50;99.90;;;;;;5048594;28;25090;-69
2021/10/09 10:36:51;;;;;;;51.38;33.28;;;14.50;99.90;;;;;;5036216;28;25047;-72
2021/10/09 10:39:21;;;;;;;46.72;34.00;;;14.70;99.90;;;;;;5030571;28;25072;-72
2021/10/09 10:42:02;;;;;;;46.08;35.45;;;14.90;99.90;;;;;;5044205;28;25079;-70
2021/10/09 10:45:26;;;;;;;48.22;36.15;;;15.00;99.90;;;;;;5043234;28;25071;-71
2021/10/09 10:51:02;;;;;;;48.85;37.13;;;14.70;99.90;;;;;;5046895;28;25091;-70
2021/10/09 10:56:36;;;;;;;46.28;33.13;;;14.90;99.90;;;;;;5043781;28;25083;-70
2021/10/09 10:59:34;;;;;;;45.63;35.38;;;15.10;99.90;;;;;;5043802;28;25140;-70
2021/10/09 11:02:13;;;;;;;46.13;33.80;;;15.20;99.90;;;;;;5041580;28;25060;-69
2021/10/09 11:04:47;;;;;;;44.58;35.28;;;15.50;99.90;;;;;;5044870;28;25072;-70
2021/10/09 11:07:14;;;;;;;46.53;34.08;;;15.70;99.90;;;;;;5046107;28;25110;-72
2021/10/09 11:09:41;;;;;;;49.83;36.28;;;15.90;99.90;;;;;;5040870;28;25097;-71
2021/10/09 11:12:26;;;;;;;47.88;35.05;;;15.90;99.90;;;;;;5050872;28;25120;-70
2021/10/09 11:15:04;;;;;;;52.83;35.50;;;15.90;99.90;;;;;;5047221;28;25052;-72
2021/10/09 11:17:35;;;;;;;51.92;35.40;;;15.80;99.90;;;;;;5050890;28;25059;-71
2021/10/09 11:20:03;;;;;;;50.15;33.78;;;15.70;99.90;;;;;;5050932;28;25064;-71
2021/10/09 11:22:56;;;;;;;48.92;33.38;;;15.90;99.90;;;;;;5045509;28;25117;-69
2021/10/09 11:25:26;;;;;;;52.17;34.20;;;16.40;99.90;;;;;;5044932;28;25047;-70
2021/10/09 11:27:52;;;;;;;47.53;31.83;;;16.90;99.90;;;;;;5047778;28;25123;-71
2021/10/09 11:30:18;;;;;;;46.13;34.22;;;17.20;99.90;;;;;;5027269;28;25141;-70
2021/10/09 11:32:44;;;;;;;48.35;34.05;;;17.60;99.90;;;;;;5033141;28;25063;-70
2021/10/09 11:35:10;;;;;;;49.22;33.97;;;17.40;99.90;;;;;;5033320;28;25194;-72
2021/10/09 11:37:45;;;;;;;42.42;32.90;;;17.50;99.90;;;;;;5026044;28;25087;-73
2021/10/09 11:40:11;;;;;;;52.92;34.58;;;17.60;99.90;;;;;;5043743;28;25137;-70
2021/10/09 11:42:50;;;;;;;46.70;33.40;;;18.10;99.90;;;;;;5044068;28;25070;-69
2021/10/09 11:45:23;;;;;;;44.88;33.53;;;18.10;99.90;;;;;;5041810;28;25059;-72
2021/10/09 11:56:00;;;;;;;44.10;30.25;;;18.40;99.90;;;;;;5045264;28;25060;-71
2021/10/09 11:58:29;;;;;;;49.47;34.38;;;19.00;99.90;;;;;;5049090;28;25148;-71
2021/10/09 12:00:55;;;;;;;48.78;32.67;;;18.20;99.90;;;;;;5025930;28;25095;-72
2021/10/09 12:03:26;;;;;;;44.80;31.05;;;18.00;99.90;;;;;;5041442;28;25143;-71
2021/10/09 12:05:54;;;;;;;42.87;32.20;;;18.40;99.90;;;;;;5025667;28;25058;-71
2021/10/09 12:08:26;;;;;;;43.85;32.83;;;18.50;99.90;;;;;;5041426;28;25110;-71
2021/10/09 12:11:31;;;;;;;41.60;34.03;;;18.50;99.90;;;;;;5037197;28;25058;-68
2021/10/09 12:14:01;;;;;;;48.47;32.45;;;18.50;99.90;;;;;;4998185;28;25054;-74
2021/10/09 12:16:31;;;;;;;45.22;34.72;;;19.00;99.90;;;;;;5049583;28;25072;-72
2021/10/09 12:19:03;;;;;;;43.33;34.40;;;18.80;99.90;;;;;;5037462;28;25060;-71
2021/10/09 12:21:35;;;;;;;47.13;34.70;;;18.60;99.90;;;;;;5048479;28;25093;-72
2021/10/09 12:24:12;;;;;;;47.25;32.75;;;18.60;99.90;;;;;;5047465;28;25054;-70
2021/10/09 12:26:38;;;;;;;38.50;31.67;;;19.00;99.90;;;;;;5046614;28;25103;-73
2021/10/09 12:29:04;;;;;;;44.35;33.50;;;19.30;99.90;;;;;;5050773;28;25135;-72
2021/10/09 12:31:32;;;;;;;38.28;30.67;;;19.00;99.90;;;;;;5045644;28;25140;-70
2021/10/09 12:33:58;;;;;;;45.72;33.53;;;18.90;99.90;;;;;;5049901;28;25058;-71
2021/10/09 12:36:32;;;;;;;45.13;33.75;;;19.50;99.90;;;;;;5039557;28;25078;-72
2021/10/09 12:39:28;;;;;;;45.05;33.45;;;19.50;99.90;;;;;;5042876;28;25058;-72
2021/10/09 12:41:55;;;;;;;46.40;34.20;;;19.40;99.90;;;;;;5047728;28;25063;-71
2021/10/09 12:44:21;;;;;;;39.88;29.60;;;19.40;99.90;;;;;;5029225;28;25096;-73
2021/10/09 12:46:48;;;;;;;41.72;31.83;;;19.70;99.90;;;;;;5047859;28;25063;-72
2021/10/09 12:49:14;;;;;;;47.00;34.03;;;19.60;99.90;;;;;;5040530;28;25149;-70
2021/10/09 12:51:40;;;;;;;48.15;34.10;;;19.20;99.90;;;;;;5050301;28;25059;-68
2021/10/09 12:54:07;;;;;;;46.92;35.55;;;19.00;99.90;;;;;;5051919;28;25068;-71
2021/10/09 12:56:33;;;;;;;43.20;33.92;;;18.80;99.90;;;;;;5052855;28;25086;-71
2021/10/09 12:59:00;;;;;;;45.22;34.30;;;18.80;99.90;;;;;;5052607;28;25065;-72
2021/10/09 13:01:25;;;;;;;44.58;32.03;;;18.90;99.90;;;;;;5043913;28;25142;-70
2021/10/09 13:03:51;;;;;;;52.53;34.42;;;19.20;99.90;;;;;;5038286;28;25110;-70
2021/10/09 13:06:17;;;;;;;40.40;32.50;;;19.20;99.90;;;;;;5030757;28;25069;-71
2021/10/09 13:08:42;;;;;;;45.28;33.13;;;19.00;99.90;;;;;;5048567;28;25080;-71
2021/10/09 13:11:08;;;;;;;40.42;33.05;;;19.10;99.90;;;;;;5046581;28;25114;-72
2021/10/09 13:13:34;;;;;;;42.30;34.03;;;19.20;99.90;;;;;;5048561;28;25088;-68
2021/10/09 13:15:59;;;;;;;47.10;32.50;;;19.30;99.90;;;;;;5050622;28;25057;-72
2021/10/09 13:18:25;;;;;;;47.10;36.28;;;19.20;99.90;;;;;;5021119;28;25058;-72
2021/10/09 13:20:50;;;;;;;44.80;34.33;;;18.70;99.90;;;;;;5034479;28;25081;-70
2021/10/09 13:23:16;;;;;;;45.53;35.67;;;18.70;99.90;;;;;;5046937;28;25059;-70
2021/10/09 13:25:42;;;;;;;45.40;35.25;;;19.10;99.90;;;;;;5038403;28;25097;-70
2021/10/09 13:28:07;;;;;;;43.95;34.00;;;19.20;99.90;;;;;;5046490;28;25120;-71
2021/10/09 13:30:34;;;;;;;53.72;35.42;;;18.90;99.90;;;;;;5044900;28;25068;-72
2021/10/09 13:33:00;;;;;;;46.58;35.35;;;18.40;99.90;;;;;;5033411;28;25155;-72
2021/10/09 13:35:26;;;;;;;52.70;38.50;;;17.70;99.90;;;;;;5037179;28;25074;-69
2021/10/09 13:37:56;;;;;;;48.40;36.83;;;17.10;99.90;;;;;;5040928;28;25119;-71
2021/10/09 13:40:22;;;;;;;52.80;36.42;;;17.10;99.90;;;;;;5051269;28;25087;-71
2021/10/09 13:42:47;;;;;;;46.80;36.88;;;16.90;99.90;;;;;;5048084;28;25068;-70
2021/10/09 13:45:13;;;;;;;49.58;36.05;;;16.90;99.90;;;;;;5052422;28;25127;-73
2021/10/09 13:47:40;;;;;;;49.05;36.65;;;16.90;99.90;;;;;;5046479;28;25105;-73
2021/10/09 13:50:06;;;;;;;50.90;37.30;;;16.80;99.90;;;;;;5045926;28;25062;-70
2021/10/09 13:52:32;;;;;;;48.97;34.97;;;16.90;99.90;;;;;;5044701;28;25061;-72
2021/10/09 13:54:57;;;;;;;46.22;34.75;;;16.70;99.90;;;;;;5043563;28;24997;-71
2021/10/09 13:57:23;;;;;;;48.17;37.30;;;16.80;99.90;;;;;;5017120;28;25120;-72
2021/10/09 13:59:49;;;;;;;45.53;35.88;;;16.80;99.90;;;;;;5044413;28;24713;-72
2021/10/09 14:02:14;;;;;;;45.22;33.65;;;16.80;99.90;;;;;;5046515;28;25060;-72
2021/10/09 14:04:40;;;;;;;45.42;33.17;;;16.70;99.90;;;;;;5022517;28;25077;-71
2021/10/09 14:07:06;;;;;;;43.40;34.13;;;16.90;99.90;;;;;;5031925;28;25090;-70
2021/10/09 14:09:32;;;;;;;47.17;34.65;;;17.00;99.90;;;;;;5023886;28;25060;-71
2021/10/09 14:11:58;;;;;;;47.65;34.95;;;17.20;99.90;;;;;;5041701;28;25115;-70
2021/10/09 14:14:25;;;;;;;46.53;34.42;;;17.10;99.90;;;;;;5044299;28;25183;-69
2021/10/09 14:16:52;;;;;;;48.90;34.65;;;16.90;99.90;;;;;;5036521;28;25073;-71
2021/10/09 14:19:18;;;;;;;47.55;33.50;;;16.90;99.90;;;;;;5039770;28;25091;-69
2021/10/09 14:21:44;;;;;;;47.95;34.30;;;16.70;99.90;;;;;;5046541;28;25094;-69
2021/10/09 14:24:10;;;;;;;42.38;33.05;;;16.90;99.90;;;;;;5045382;28;25075;-68
2021/10/09 14:26:36;;;;;;;42.78;31.80;;;17.00;99.90;;;;;;5046240;28;25059;-70
2021/10/09 14:29:02;;;;;;;45.03;32.72;;;17.00;99.90;;;;;;5042214;28;25086;-70
2021/10/09 14:31:27;;;;;;;48.58;33.65;;;17.00;99.90;;;;;;5042961;28;25074;-70
2021/10/09 14:33:53;;;;;;;45.60;33.47;;;16.90;99.90;;;;;;5020335;28;25055;-69
2021/10/09 14:36:18;;;;;;;44.92;33.65;;;16.90;99.90;;;;;;5041017;28;25088;-69
2021/10/09 14:38:44;;;;;;;41.97;33.08;;;17.00;99.90;;;;;;5040014;28;25127;-71